createdAt,value
2024-05-09T00:00:29.894Z,99247.69
2024-05-09T00:03:36.703Z,99248.47
2024-05-09T00:06:38.306Z,99246.78
2024-05-09T00:09:39.791Z,99242.34
2024-05-09T00:12:41.330Z,99242.19
2024-05-09T00:15:42.843Z,99244.69
2024-05-09T00:18:44.508Z,99246.34
2024-05-09T00:21:46.137Z,99244.59
2024-05-09T00:24:47.638Z,99243.50
2024-05-09T00:27:49.147Z,99240.06
2024-05-09T00:30:50.691Z,99233.03
2024-05-09T00:33:53.249Z,99227.81
2024-05-09T00:36:54.832Z,99230.34
2024-05-09T00:39:56.360Z,99234.59
2024-05-09T00:42:57.858Z,99225.84
2024-05-09T00:45:59.600Z,99231.03
2024-05-09T00:49:01.302Z,99231.03
2024-05-09T00:52:02.853Z,99230.00
2024-05-09T00:55:04.415Z,99228.31
2024-05-09T00:58:06.025Z,99223.72
2024-05-09T01:01:07.816Z,99222.91
2024-05-09T01:04:09.916Z,99216.72
2024-05-09T01:07:11.480Z,99220.13
2024-05-09T01:10:17.446Z,99226.00
2024-05-09T01:13:25.506Z,99225.06
2024-05-09T01:16:26.971Z,99225.84
2024-05-09T01:19:28.887Z,99224.84
2024-05-09T01:22:30.516Z,99217.06
2024-05-09T01:25:33.006Z,99224.72
2024-05-09T01:28:34.545Z,99220.31
2024-05-09T01:31:36.108Z,99221.16
2024-05-09T01:34:37.590Z,99216.81
2024-05-09T01:37:40.331Z,99230.56
2024-05-09T01:40:42.557Z,99227.94
2024-05-09T01:43:44.087Z,99227.84
2024-05-09T01:46:45.724Z,99227.75
2024-05-09T01:49:47.260Z,99224.19
2024-05-09T01:52:51.762Z,99227.59
2024-05-09T01:55:53.416Z,99227.66
2024-05-09T01:58:55.017Z,99228.53
2024-05-09T02:01:57.790Z,99225.97
2024-05-09T02:04:59.632Z,99222.38
2024-05-09T02:08:01.360Z,99225.66
2024-05-09T02:11:03.110Z,99227.56
2024-05-09T02:14:04.812Z,99224.97
2024-05-09T02:17:06.315Z,99223.25
2024-05-09T02:20:13.102Z,99230.00
2024-05-09T02:23:18.333Z,99227.16
2024-05-09T02:26:19.970Z,99228.75
2024-05-09T02:29:21.622Z,99228.84
2024-05-09T02:32:23.200Z,99227.19
2024-05-09T02:35:25.086Z,99220.25
2024-05-09T02:38:26.696Z,99228.03
2024-05-09T02:41:28.358Z,99229.59
2024-05-09T02:44:30.045Z,99234.66
2024-05-09T02:47:31.746Z,99224.06
2024-05-09T02:50:38.329Z,99229.16
2024-05-09T02:53:41.479Z,99229.09
2024-05-09T02:56:43.052Z,99218.88
2024-05-09T02:59:44.596Z,99215.31
2024-05-09T03:02:46.207Z,99220.34
2024-05-09T03:05:47.965Z,99221.22
2024-05-09T03:08:49.607Z,99218.78
2024-05-09T03:11:51.773Z,99215.34
2024-05-09T03:14:53.369Z,99216.97
2024-05-09T03:17:55.035Z,99219.63
2024-05-09T03:20:56.631Z,99212.56
2024-05-09T03:23:58.175Z,99207.25
2024-05-09T03:26:59.664Z,99215.81
2024-05-09T03:30:01.145Z,99207.09
2024-05-09T03:33:02.795Z,99202.78
2024-05-09T03:36:06.894Z,99199.41
2024-05-09T03:39:10.989Z,99200.19
2024-05-09T03:42:12.562Z,99198.94
2024-05-09T03:45:14.106Z,99197.19
2024-05-09T03:48:15.941Z,99199.59
2024-05-09T03:51:17.588Z,99198.63
2024-05-09T03:54:19.243Z,99204.69
2024-05-09T03:57:20.740Z,99210.66
2024-05-09T04:00:30.891Z,99201.91
2024-05-09T04:03:39.694Z,99206.47
2024-05-09T04:06:43.102Z,99210.81
2024-05-09T04:09:44.579Z,99210.72
2024-05-09T04:12:46.081Z,99209.00
2024-05-09T04:15:47.600Z,99208.34
2024-05-09T04:18:49.450Z,99209.03
2024-05-09T04:21:51.028Z,99219.34
2024-05-09T04:24:52.925Z,99214.03
2024-05-09T04:27:55.935Z,99217.44
2024-05-09T04:30:57.434Z,99210.53
2024-05-09T04:33:59.054Z,99213.00
2024-05-09T04:37:00.844Z,99212.34
2024-05-09T04:40:02.366Z,99207.34
2024-05-09T04:43:07.191Z,99207.06
2024-05-09T04:46:09.086Z,99213.34
2024-05-09T04:49:10.720Z,99210.66
2024-05-09T04:52:12.295Z,99205.53
2024-05-09T04:55:13.797Z,99216.97
2024-05-09T04:58:15.496Z,99213.59
2024-05-09T05:01:17.034Z,99210.16
2024-05-09T05:04:18.569Z,99212.84
2024-05-09T05:07:20.172Z,99207.19
2024-05-09T05:10:29.428Z,99210.81
2024-05-09T05:13:38.628Z,99209.28
2024-05-09T05:16:41.660Z,99204.25
2024-05-09T05:19:43.273Z,99203.47
2024-05-09T05:22:44.854Z,99211.41
2024-05-09T05:25:49.831Z,99215.13
2024-05-09T05:28:51.731Z,99210.09
2024-05-09T05:31:53.441Z,99210.22
2024-05-09T05:34:55.006Z,99217.31
2024-05-09T05:37:56.662Z,99212.19
2024-05-09T05:40:58.228Z,99218.44
2024-05-09T05:43:59.770Z,99215.16
2024-05-09T05:47:01.509Z,99225.78
2024-05-09T05:50:05.195Z,99225.97
2024-05-09T05:53:09.356Z,99223.53
2024-05-09T05:56:11.801Z,99226.28
2024-05-09T05:59:15.025Z,99224.66
2024-05-09T06:02:16.908Z,99236.13
2024-05-09T06:05:18.555Z,99233.72
2024-05-09T06:08:20.144Z,99243.38
2024-05-09T06:11:21.788Z,99246.97
2024-05-09T06:14:23.513Z,99254.91
2024-05-09T06:17:25.205Z,99250.63
2024-05-09T06:20:34.852Z,99240.25
2024-05-09T06:23:48.252Z,99237.75
2024-05-09T06:26:49.810Z,99232.75
2024-05-09T06:29:51.326Z,99240.63
2024-05-09T06:32:53.018Z,99232.16
2024-05-09T06:35:59.248Z,99237.63
2024-05-09T06:39:00.761Z,99231.78
2024-05-09T06:42:02.267Z,99234.56
2024-05-09T06:45:03.805Z,99240.84
2024-05-09T06:48:05.862Z,99249.72
2024-05-09T06:51:07.464Z,99248.94
2024-05-09T06:54:08.973Z,99255.16
2024-05-09T06:57:10.534Z,99261.34
2024-05-09T07:00:15.684Z,99290.25
2024-05-09T07:03:23.929Z,99344.47
2024-05-09T07:06:25.592Z,99370.72
2024-05-09T07:09:27.071Z,99400.47
2024-05-09T07:12:28.687Z,99412.72
2024-05-09T07:15:30.534Z,99423.19
2024-05-09T07:18:32.093Z,99443.31
2024-05-09T07:21:33.720Z,99444.13
2024-05-09T07:24:35.641Z,99452.03
2024-05-09T07:27:37.128Z,99449.38
2024-05-09T07:30:38.648Z,99454.59
2024-05-09T07:33:40.275Z,99463.31
2024-05-09T07:36:42.069Z,99459.75
2024-05-09T07:39:43.689Z,99463.19
2024-05-09T07:42:46.125Z,99462.25
2024-05-09T07:45:52.889Z,99458.72
2024-05-09T07:50:35.360Z,99460.41
2024-05-09T07:55:22.902Z,99461.16
2024-05-09T07:58:27.772Z,99467.13
2024-05-09T08:01:29.591Z,99463.59
2024-05-09T08:04:31.419Z,99450.19
2024-05-09T08:07:35.199Z,99455.34
2024-05-09T08:10:36.860Z,99449.84
2024-05-09T08:13:38.387Z,99454.81
2024-05-09T08:16:39.881Z,99463.22
2024-05-09T08:19:42.018Z,99474.34
2024-05-09T08:22:43.574Z,99462.53
2024-05-09T08:25:45.092Z,99464.91
2024-05-09T08:28:46.772Z,99465.41
2024-05-09T08:31:48.335Z,99467.69
2024-05-09T08:34:50.053Z,99464.50
2024-05-09T08:37:53.429Z,99463.69
2024-05-09T08:40:55.075Z,99476.47
2024-05-09T08:43:56.589Z,99478.69
2024-05-09T08:46:58.159Z,99471.22
2024-05-09T08:50:00.609Z,99473.13
2024-05-09T08:53:02.418Z,99468.38
2024-05-09T08:56:04.075Z,99464.78
2024-05-09T08:59:06.583Z,99465.75
2024-05-09T09:02:08.290Z,99471.03
2024-05-09T09:05:17.004Z,99468.56
2024-05-09T09:08:18.647Z,99470.06
2024-05-09T09:11:20.156Z,99467.88
2024-05-09T09:14:21.668Z,99480.69
2024-05-09T09:17:23.283Z,99484.78
2024-05-09T09:20:35.401Z,99467.59
2024-05-09T09:23:41.448Z,99470.09
2024-05-09T09:26:44.741Z,99465.66
2024-05-09T09:29:46.274Z,99476.50
2024-05-09T09:32:49.011Z,99481.72
2024-05-09T09:35:50.585Z,99483.13
2024-05-09T09:38:52.081Z,99483.16
2024-05-09T09:41:54.507Z,99482.78
2024-05-09T09:45:04.280Z,99475.22
2024-05-09T09:48:07.508Z,99476.72
2024-05-09T09:51:09.210Z,99467.44
2024-05-09T09:54:10.697Z,99469.97
2024-05-09T09:57:12.207Z,99461.16
2024-05-09T10:00:20.702Z,99460.16
2024-05-09T10:03:26.005Z,99457.84
2024-05-09T10:06:27.685Z,99466.78
2024-05-09T10:09:29.269Z,99474.34
2024-05-09T10:12:30.914Z,99474.69
2024-05-09T10:15:52.990Z,99474.63
2024-05-09T10:18:55.035Z,99487.69
2024-05-09T10:22:06.134Z,99480.69
2024-05-09T10:25:07.949Z,99463.84
2024-05-09T10:28:12.687Z,99455.72
2024-05-09T10:31:15.448Z,99454.75
2024-05-09T10:34:18.120Z,99452.75
2024-05-09T10:37:19.891Z,99452.69
2024-05-09T10:40:26.594Z,99444.00
2024-05-09T10:43:32.709Z,99438.50
2024-05-09T10:46:34.226Z,99432.91
2024-05-09T10:49:35.848Z,99434.06
2024-05-09T10:52:37.409Z,99419.03
2024-05-09T10:55:38.914Z,99436.91
2024-05-09T10:58:40.483Z,99430.25
2024-05-09T11:01:42.376Z,99440.59
2024-05-09T11:04:45.282Z,99440.97
2024-05-09T11:07:46.841Z,99448.56
2024-05-09T11:10:48.994Z,99446.03
2024-05-09T11:13:50.597Z,99452.97
2024-05-09T11:17:01.221Z,99441.56
2024-05-09T11:20:08.125Z,99440.53
2024-05-09T11:23:12.455Z,99430.50
2024-05-09T11:26:15.307Z,99430.91
2024-05-09T11:29:19.511Z,99433.75
2024-05-09T11:32:28.450Z,99427.47
2024-05-09T11:35:30.936Z,99423.16
2024-05-09T11:38:33.971Z,99422.41
2024-05-09T11:41:35.977Z,99413.72
2024-05-09T11:44:37.498Z,99412.19
2024-05-09T11:47:41.271Z,99432.63
2024-05-09T11:50:42.919Z,99431.28
2024-05-09T11:53:44.416Z,99424.09
2024-05-09T11:56:45.949Z,99423.63
2024-05-09T11:59:47.430Z,99408.38
2024-05-09T12:02:49.043Z,99412.75
2024-05-09T12:05:50.656Z,99402.34
2024-05-09T12:08:52.197Z,99383.53
2024-05-09T12:11:53.789Z,99384.09
2024-05-09T12:14:55.280Z,99372.78
2024-05-09T12:17:58.993Z,99368.59
2024-05-09T12:21:02.784Z,99383.13
2024-05-09T12:24:04.253Z,99371.06
2024-05-09T12:27:05.756Z,99372.69
2024-05-09T12:30:11.289Z,99372.94
2024-05-09T12:33:13.836Z,99365.53
2024-05-09T12:36:15.673Z,99372.75
2024-05-09T12:39:17.164Z,99364.91
2024-05-09T12:42:26.743Z,99360.38
2024-05-09T12:45:29.641Z,99365.97
2024-05-09T12:48:31.314Z,99375.84
2024-05-09T12:51:32.952Z,99370.03
2024-05-09T12:54:34.615Z,99364.41
2024-05-09T12:57:36.166Z,99375.25
2024-05-09T13:00:37.782Z,99377.66
2024-05-09T13:03:39.551Z,99376.91
2024-05-09T13:06:41.416Z,99353.91
2024-05-09T13:09:42.972Z,99342.03
2024-05-09T13:12:44.526Z,99340.78
2024-05-09T13:15:46.029Z,99340.78
2024-05-09T13:18:47.698Z,99336.16
2024-05-09T13:21:49.324Z,99327.81
2024-05-09T13:24:50.877Z,99327.44
2024-05-09T13:27:52.475Z,99306.97
2024-05-09T13:30:54.143Z,99327.16
2024-05-09T13:33:55.739Z,99320.88
2024-05-09T13:36:57.289Z,99336.66
2024-05-09T13:39:59.392Z,99346.13
2024-05-09T13:43:01.889Z,99343.47
2024-05-09T13:46:03.561Z,99343.75
2024-05-09T13:49:05.596Z,99323.75
2024-05-09T13:52:07.901Z,99303.69
2024-05-09T13:55:09.684Z,99292.31
2024-05-09T13:58:11.266Z,99286.09
2024-05-09T14:01:12.880Z,99282.19
2024-05-09T14:04:14.697Z,99283.59
2024-05-09T14:07:16.507Z,99271.84
2024-05-09T14:10:23.361Z,99280.53
2024-05-09T14:13:30.202Z,99278.97
2024-05-09T14:16:31.779Z,99276.63
2024-05-09T14:19:33.382Z,99276.91
2024-05-09T14:22:35.560Z,99266.53
2024-05-09T14:25:41.849Z,99271.28
2024-05-09T14:28:44.883Z,99273.16
2024-05-09T14:31:47.351Z,99258.28
2024-05-09T14:34:49.012Z,99259.50
2024-05-09T14:37:50.549Z,99256.84
2024-05-09T14:40:52.161Z,99252.34
2024-05-09T14:43:53.676Z,99255.34
2024-05-09T14:46:55.231Z,99241.13
2024-05-09T14:49:56.721Z,99238.75
2024-05-09T14:52:58.300Z,99247.34
2024-05-09T14:55:59.879Z,99237.44
2024-05-09T14:59:01.351Z,99232.97
2024-05-09T15:02:02.919Z,99239.03
2024-05-09T15:05:04.785Z,99233.00
2024-05-09T15:08:06.967Z,99224.06
2024-05-09T15:11:08.692Z,99218.94
2024-05-09T15:14:10.254Z,99224.41
2024-05-09T15:17:11.763Z,99229.72
2024-05-09T15:20:17.309Z,99223.63
2024-05-09T15:23:21.954Z,99216.94
2024-05-09T15:26:23.412Z,99216.91
2024-05-09T15:29:26.125Z,99209.41
2024-05-09T15:32:29.524Z,99205.13
2024-05-09T15:35:31.220Z,99209.47
2024-05-09T15:38:32.784Z,99216.91
2024-05-09T15:41:34.257Z,99207.19
2024-05-09T15:44:35.871Z,99210.50
2024-05-09T15:47:38.029Z,99205.03
2024-05-09T15:50:41.812Z,99204.59
2024-05-09T15:53:44.249Z,99210.63
2024-05-09T15:56:48.943Z,99210.19
2024-05-09T15:59:50.942Z,99207.09
2024-05-09T16:02:52.622Z,99203.41
2024-05-09T16:10:06.836Z,99197.50
2024-05-09T16:13:08.692Z,99204.31
2024-05-09T16:16:10.523Z,99202.69
2024-05-09T16:19:12.218Z,99204.00
2024-05-09T16:22:13.869Z,99202.47
2024-05-09T16:25:15.572Z,99197.34
2024-05-09T16:28:26.867Z,99204.09
2024-05-09T16:31:28.699Z,99204.44
2024-05-09T16:34:30.284Z,99197.13
2024-05-09T16:37:31.869Z,99192.50
2024-05-09T16:40:38.216Z,99187.75
2024-05-09T16:43:42.131Z,99190.66
2024-05-09T16:46:43.622Z,99197.84
2024-05-09T16:49:45.414Z,99187.03
2024-05-09T16:52:46.967Z,99188.06
2024-05-09T16:55:48.629Z,99198.13
2024-05-09T16:58:50.189Z,99199.66
2024-05-09T17:01:51.861Z,99190.41
2024-05-09T17:04:53.610Z,99189.97
2024-05-09T17:07:55.568Z,99180.31
2024-05-09T17:10:57.220Z,99182.03
2024-05-09T17:13:58.803Z,99171.06
2024-05-09T17:17:00.371Z,99170.56
2024-05-09T17:20:01.977Z,99168.69
2024-05-09T17:23:03.898Z,99168.91
2024-05-09T17:26:05.556Z,99162.91
2024-05-09T17:29:09.346Z,99160.03
2024-05-09T17:32:13.336Z,99159.53
2024-05-09T17:35:15.074Z,99156.94
2024-05-09T17:38:16.573Z,99160.03
2024-05-09T17:41:20.824Z,99159.41
2024-05-09T17:44:22.334Z,99163.59
2024-05-09T17:47:24.041Z,99157.81
2024-05-09T17:50:31.622Z,99164.47
2024-05-09T17:53:37.080Z,99170.63
2024-05-09T17:56:38.558Z,99169.09
2024-05-09T17:59:40.062Z,99151.75
2024-05-09T18:02:41.601Z,99159.19
2024-05-09T18:05:44.433Z,99151.00
2024-05-09T18:08:46.630Z,99150.72
2024-05-09T18:11:48.378Z,99144.88
2024-05-09T18:14:49.902Z,99146.91
2024-05-09T18:17:51.595Z,99150.53
2024-05-09T18:20:53.125Z,99153.38
2024-05-09T18:23:57.439Z,99146.50
2024-05-09T18:27:00.281Z,99148.50
2024-05-09T18:30:01.819Z,99150.63
2024-05-09T18:33:04.307Z,99144.84
2024-05-09T18:36:06.997Z,99156.31
2024-05-09T18:39:08.780Z,99151.28
2024-05-09T18:42:10.254Z,99146.28
2024-05-09T18:45:11.962Z,99139.53
2024-05-09T18:48:13.620Z,99144.09
2024-05-09T18:51:15.210Z,99144.34
2024-05-09T18:54:16.766Z,99141.81
2024-05-09T18:57:18.291Z,99142.88
2024-05-09T19:00:31.085Z,99136.84
2024-05-09T19:03:37.432Z,99140.53
2024-05-09T19:06:39.049Z,99143.28
2024-05-09T19:09:40.904Z,99135.50
2024-05-09T19:12:42.443Z,99138.25
2024-05-09T19:15:44.638Z,99138.34
2024-05-09T19:18:46.498Z,99138.38
2024-05-09T19:21:48.139Z,99136.81
2024-05-09T19:24:49.689Z,99136.00
2024-05-09T19:27:51.326Z,99144.00
2024-05-09T19:30:53.111Z,99138.81
2024-05-09T19:33:54.689Z,99142.31
2024-05-09T19:36:56.306Z,99139.78
2024-05-09T19:39:57.956Z,99138.94
2024-05-09T19:42:59.733Z,99142.50
2024-05-09T19:46:01.308Z,99132.97
2024-05-09T19:49:05.425Z,99133.88
2024-05-09T19:52:07.241Z,99129.56
2024-05-09T19:55:09.249Z,99126.97
2024-05-09T19:58:11.607Z,99127.84
2024-05-09T20:01:14.083Z,99123.53
2024-05-09T20:04:15.714Z,99125.31
2024-05-09T20:07:20.115Z,99123.56
2024-05-09T20:10:24.159Z,99124.47
2024-05-09T20:13:31.065Z,99123.63
2024-05-09T20:16:32.698Z,99126.25
2024-05-09T20:19:34.460Z,99114.94
2024-05-09T20:22:36.072Z,99135.88
2024-05-09T20:25:37.677Z,99133.25
2024-05-09T20:28:39.189Z,99132.38
2024-05-09T20:31:41.265Z,99123.69
2024-05-09T20:34:43.204Z,99129.81
2024-05-09T20:37:44.685Z,99134.16
2024-05-09T20:40:46.228Z,99125.44
2024-05-09T20:43:47.784Z,99126.31
2024-05-09T20:46:49.298Z,99116.75
2024-05-09T20:49:51.193Z,99113.22
2024-05-09T20:52:52.740Z,99107.13
2024-05-09T20:55:54.224Z,99106.25
2024-05-09T20:58:55.742Z,99101.00
2024-05-09T21:01:57.378Z,99099.25
2024-05-09T21:04:59.015Z,99089.69
2024-05-09T21:08:00.773Z,99096.66
2024-05-09T21:11:02.592Z,99096.63
2024-05-09T21:14:04.165Z,99082.69
2024-05-09T21:17:05.860Z,99075.66
2024-05-09T21:20:11.500Z,99073.91
2024-05-09T21:23:18.359Z,99063.38
2024-05-09T21:26:23.057Z,99057.28
2024-05-09T21:29:24.615Z,99063.38
2024-05-09T21:32:26.258Z,99059.88
2024-05-09T21:35:27.891Z,99053.72
2024-05-09T21:38:29.446Z,99055.41
2024-05-09T21:41:30.955Z,99056.28
2024-05-09T21:44:32.572Z,99050.13
2024-05-09T21:47:34.457Z,99045.72
2024-05-09T21:50:40.524Z,99033.50
2024-05-09T21:53:43.705Z,99035.25
2024-05-09T21:56:45.227Z,99031.78
2024-05-09T21:59:47.492Z,99033.53
2024-05-09T22:02:49.093Z,99030.91
2024-05-09T22:05:51.037Z,99035.25
2024-05-09T22:08:52.657Z,99032.63
2024-05-09T22:11:54.528Z,99029.94
2024-05-09T22:14:56.112Z,99033.34
2024-05-09T22:17:57.932Z,99027.19
2024-05-09T22:20:59.507Z,99023.75
2024-05-09T22:24:01.255Z,99030.63
2024-05-09T22:27:02.994Z,99027.16
2024-05-09T22:30:09.080Z,99026.19
2024-05-09T22:33:13.414Z,99018.41
2024-05-09T22:36:14.996Z,99014.78
2024-05-09T22:39:17.703Z,99014.56
2024-05-09T22:42:19.348Z,99019.72
2024-05-09T22:45:20.879Z,99008.50
2024-05-09T22:48:23.651Z,99005.81
2024-05-09T22:51:25.877Z,99014.59
2024-05-09T22:54:27.404Z,99012.88
2024-05-09T22:57:28.940Z,99009.41
2024-05-09T23:00:32.371Z,99008.50
2024-05-09T23:03:34.903Z,99014.47
2024-05-09T23:06:39.928Z,99009.19
2024-05-09T23:09:41.565Z,99014.34
2024-05-09T23:12:43.165Z,98999.63
2024-05-09T23:15:44.758Z,99002.16
2024-05-09T23:18:46.449Z,99001.19
2024-05-09T23:21:48.220Z,98995.13
2024-05-09T23:24:49.762Z,98986.34
2024-05-09T23:27:51.350Z,98989.78
2024-05-09T23:30:52.926Z,98987.91
2024-05-09T23:33:55.187Z,98983.53
2024-05-09T23:36:56.971Z,98982.72
2024-05-09T23:39:58.765Z,98980.09
2024-05-09T23:43:00.360Z,98981.84
2024-05-09T23:46:02.189Z,98978.38
2024-05-09T23:49:03.876Z,98977.41
2024-05-09T23:52:05.609Z,98981.75
2024-05-09T23:55:07.284Z,98974.75
2024-05-09T23:58:09.284Z,98966.94
